createdAt,value
2022-11-12T00:01:12.231Z,11.63
2022-11-12T00:03:40.310Z,14.32
2022-11-12T00:06:08.578Z,15.65
2022-11-12T00:08:37.439Z,14.18
2022-11-12T00:11:05.986Z,12.38
2022-11-12T00:13:34.059Z,14.70
2022-11-12T00:16:02.127Z,15.57
2022-11-12T00:18:31.463Z,12.52
2022-11-12T00:20:59.454Z,16.98
2022-11-12T00:23:27.504Z,14.52
2022-11-12T00:26:02.482Z,13.93
2022-11-12T00:28:36.385Z,13.30
2022-11-12T00:31:10.283Z,13.45
2022-11-12T00:33:42.659Z,14.05
2022-11-12T00:36:11.146Z,12.65
2022-11-12T00:38:39.188Z,14.68
2022-11-12T00:41:07.482Z,13.98
2022-11-12T00:43:35.600Z,12.45
2022-11-12T00:46:03.622Z,12.00
2022-11-12T00:48:31.603Z,10.82
2022-11-12T00:51:06.311Z,9.95
2022-11-12T00:53:34.479Z,12.13
2022-11-12T00:56:05.134Z,9.57
2022-11-12T00:58:35.094Z,8.88
2022-11-12T01:01:08.110Z,8.50
2022-11-12T01:03:36.920Z,7.97
2022-11-12T01:06:08.303Z,9.07
2022-11-12T01:08:36.605Z,12.93
2022-11-12T01:11:09.521Z,8.75
2022-11-12T01:13:43.962Z,8.63
2022-11-12T01:16:15.054Z,6.95
2022-11-12T01:18:43.261Z,9.98
2022-11-12T01:21:13.118Z,7.40
2022-11-12T01:23:42.575Z,9.82
2022-11-12T01:26:12.611Z,9.20
2022-11-12T01:28:40.987Z,10.93
2022-11-12T01:31:15.016Z,12.07
2022-11-12T01:33:44.544Z,10.68
2022-11-12T01:36:14.588Z,7.95
2022-11-12T01:38:44.060Z,9.52
2022-11-12T01:41:14.874Z,7.60
2022-11-12T01:43:42.956Z,7.82
2022-11-12T01:46:18.497Z,8.75
2022-11-12T01:48:51.456Z,7.60
2022-11-12T01:51:23.801Z,8.07
2022-11-12T01:53:57.327Z,6.53
2022-11-12T01:56:28.378Z,7.68
2022-11-12T01:59:00.265Z,7.82
2022-11-12T02:01:28.271Z,6.60
2022-11-12T02:03:57.616Z,6.60
2022-11-12T02:06:27.572Z,4.88
2022-11-12T02:08:56.452Z,6.80
2022-11-12T02:11:24.728Z,6.65
2022-11-12T02:14:01.181Z,6.63
2022-11-12T02:16:33.672Z,5.53
2022-11-12T02:19:02.329Z,4.93
2022-11-12T02:21:32.771Z,8.35
2022-11-12T02:24:02.841Z,8.48
2022-11-12T02:26:34.556Z,5.82
2022-11-12T02:29:02.915Z,7.60
2022-11-12T02:31:31.461Z,8.48
2022-11-12T02:33:59.445Z,6.88
2022-11-12T02:36:27.755Z,7.60
2022-11-12T02:38:57.364Z,6.53
2022-11-12T02:43:53.225Z,5.53
2022-11-12T02:46:21.451Z,6.70
2022-11-12T02:48:49.461Z,6.63
2022-11-12T02:51:17.424Z,4.88
2022-11-12T02:53:45.469Z,5.05
2022-11-12T02:56:14.902Z,7.05
2022-11-12T02:58:42.901Z,4.43
2022-11-12T03:01:10.901Z,7.90
2022-11-12T03:03:38.944Z,7.03
2022-11-12T03:06:07.830Z,5.65
2022-11-12T03:08:35.936Z,5.28
2022-11-12T03:11:08.093Z,8.73
2022-11-12T03:13:37.846Z,4.53
2022-11-12T03:16:06.383Z,9.02
2022-11-12T03:18:34.992Z,6.30
2022-11-12T03:21:03.042Z,5.27
2022-11-12T03:23:31.027Z,4.80
2022-11-12T03:25:59.053Z,5.90
2022-11-12T03:28:27.486Z,4.47
2022-11-12T03:31:00.493Z,7.10
2022-11-12T03:33:28.518Z,4.90
2022-11-12T03:35:56.748Z,5.35
2022-11-12T03:38:25.201Z,2.67
2022-11-12T03:40:53.449Z,2.63
2022-11-12T03:43:21.484Z,2.63
2022-11-12T03:45:49.531Z,3.35
2022-11-12T03:48:18.953Z,3.45
2022-11-12T03:50:46.982Z,1.85
2022-11-12T03:53:14.983Z,3.25
2022-11-12T03:55:42.942Z,2.28
2022-11-12T03:58:10.934Z,3.58
2022-11-12T04:00:38.930Z,1.70
2022-11-12T04:03:06.919Z,2.92
2022-11-12T04:05:53.849Z,4.22
2022-11-12T04:08:38.993Z,2.33
2022-11-12T04:11:13.887Z,2.72
2022-11-12T04:13:42.122Z,2.63
2022-11-12T04:16:31.755Z,3.60
2022-11-12T04:21:52.263Z,5.47
2022-11-12T04:24:40.919Z,4.05
2022-11-12T04:27:10.394Z,3.37
2022-11-12T04:29:56.141Z,4.75
2022-11-12T04:32:25.405Z,5.75
2022-11-12T04:34:54.146Z,2.47
2022-11-12T04:37:24.468Z,3.63
2022-11-12T04:39:53.115Z,5.18
2022-11-12T04:42:38.987Z,3.50
2022-11-12T04:45:08.691Z,3.47
2022-11-12T04:47:38.296Z,2.45
2022-11-12T04:52:37.075Z,2.65
2022-11-12T04:55:05.966Z,2.83
2022-11-12T04:57:33.963Z,3.10
2022-11-12T05:00:02.011Z,5.72
2022-11-12T05:02:30.019Z,6.97
2022-11-12T05:04:58.014Z,4.70
2022-11-12T05:07:26.014Z,3.38
2022-11-12T05:09:55.463Z,4.18
2022-11-12T05:12:23.464Z,3.20
2022-11-12T05:14:51.465Z,6.15
2022-11-12T05:17:19.477Z,7.03
2022-11-12T05:19:47.494Z,9.82
2022-11-12T05:22:40.217Z,15.43
2022-11-12T05:25:04.534Z,9.73
2022-11-12T05:27:32.692Z,8.25
2022-11-12T05:30:00.655Z,4.13
2022-11-12T05:32:28.792Z,5.55
2022-11-12T05:34:56.787Z,5.05
2022-11-12T05:37:24.813Z,3.53
2022-11-12T05:39:52.823Z,4.63
2022-11-12T05:42:22.184Z,5.15
2022-11-12T05:44:50.162Z,6.40
2022-11-12T05:47:18.166Z,8.65
2022-11-12T05:49:46.122Z,10.88
2022-11-12T05:52:14.099Z,11.38
2022-11-12T05:54:42.086Z,9.75
2022-11-12T05:57:10.072Z,9.05
2022-11-12T05:59:39.540Z,8.60
2022-11-12T06:02:07.624Z,11.27
2022-11-12T06:04:35.630Z,11.98
2022-11-12T06:07:04.200Z,12.70
2022-11-12T06:09:32.362Z,12.77
2022-11-12T06:12:00.355Z,9.77
2022-11-12T06:14:28.331Z,8.70
2022-11-12T06:16:57.668Z,8.75
2022-11-12T06:19:25.647Z,7.07
2022-11-12T06:21:53.610Z,4.78
2022-11-12T06:24:21.771Z,3.53
2022-11-12T06:26:49.813Z,3.58
2022-11-12T06:29:17.825Z,3.42
2022-11-12T06:31:45.823Z,8.95
2022-11-12T06:34:15.199Z,4.97
2022-11-12T06:36:43.162Z,5.03
2022-11-12T06:39:12.157Z,3.75
2022-11-12T06:41:40.134Z,5.45
2022-11-12T06:44:08.115Z,11.07
2022-11-12T06:46:36.108Z,25.35
2022-11-12T06:49:04.143Z,21.38
2022-11-12T06:51:33.518Z,10.40
2022-11-12T06:54:01.537Z,6.05
2022-11-12T06:56:29.532Z,15.20
2022-11-12T06:58:57.508Z,32.60
2022-11-12T07:01:25.627Z,161.95
2022-11-12T07:03:54.731Z,55.83
2022-11-12T07:06:22.930Z,11.95
2022-11-12T07:08:52.372Z,15.90
2022-11-12T07:11:21.264Z,23.65
2022-11-12T07:13:49.763Z,19.25
2022-11-12T07:16:18.743Z,21.40
2022-11-12T07:18:47.755Z,21.33
2022-11-12T07:21:18.286Z,14.02
2022-11-12T07:23:47.745Z,23.23
2022-11-12T07:26:18.728Z,31.25
2022-11-12T07:28:47.098Z,31.60
2022-11-12T07:31:16.178Z,34.08
2022-11-12T07:33:44.738Z,27.40
2022-11-12T07:36:14.661Z,49.35
2022-11-12T07:38:44.162Z,39.00
2022-11-12T07:41:14.158Z,43.00
2022-11-12T07:43:46.150Z,41.60
2022-11-12T07:46:15.879Z,30.50
2022-11-12T07:48:44.964Z,22.65
2022-11-12T07:51:14.720Z,28.83
2022-11-12T07:53:43.489Z,33.63
2022-11-12T07:56:13.619Z,26.00
2022-11-12T07:58:43.195Z,25.33
2022-11-12T08:03:39.989Z,48.73
2022-11-12T08:06:08.718Z,35.55
2022-11-12T08:08:36.740Z,31.73
2022-11-12T08:11:04.879Z,32.17
2022-11-12T08:13:32.955Z,24.48
2022-11-12T08:16:02.518Z,28.27
2022-11-12T08:21:03.336Z,20.42
2022-11-12T08:23:31.951Z,21.80
2022-11-12T08:26:00.287Z,13.57
2022-11-12T08:28:30.445Z,19.75
2022-11-12T08:30:58.776Z,23.27
2022-11-12T08:33:28.096Z,19.40
2022-11-12T08:35:56.110Z,20.08
2022-11-12T08:38:24.321Z,17.23
2022-11-12T08:40:52.529Z,18.30
2022-11-12T08:43:20.758Z,15.70
2022-11-12T08:45:50.030Z,16.08
2022-11-12T08:48:18.020Z,21.55
2022-11-12T08:50:47.411Z,16.98
2022-11-12T08:53:15.551Z,19.98
2022-11-12T08:55:43.603Z,17.65
2022-11-12T08:58:11.796Z,12.15
2022-11-12T09:00:43.091Z,15.02
2022-11-12T09:03:15.697Z,10.65
2022-11-12T09:05:43.932Z,9.85
2022-11-12T09:08:15.599Z,13.77
2022-11-12T09:10:43.922Z,10.18
2022-11-12T09:13:11.989Z,9.95
2022-11-12T09:15:40.019Z,9.32
2022-11-12T09:18:11.890Z,8.05
2022-11-12T09:20:40.089Z,8.48
2022-11-12T09:23:10.898Z,8.27
2022-11-12T09:25:41.483Z,7.32
2022-11-12T09:28:10.893Z,4.97
2022-11-12T09:30:39.880Z,7.25
2022-11-12T09:33:07.949Z,6.93
2022-11-12T09:35:35.892Z,7.00
2022-11-12T09:38:03.862Z,7.03
2022-11-12T09:40:48.196Z,11.90
2022-11-12T09:43:23.303Z,9.15
2022-11-12T09:46:13.534Z,10.27
2022-11-12T09:48:46.622Z,7.63
2022-11-12T09:51:22.747Z,6.53
2022-11-12T09:53:56.865Z,7.22
2022-11-12T09:56:28.200Z,6.90
2022-11-12T09:58:56.324Z,7.13
2022-11-12T10:01:35.906Z,4.55
2022-11-12T10:04:22.232Z,4.53
2022-11-12T10:06:56.234Z,4.25
2022-11-12T10:09:29.550Z,5.70
2022-11-12T10:12:24.428Z,5.80
2022-11-12T10:15:39.912Z,4.25
2022-11-12T10:18:14.198Z,5.00
2022-11-12T10:20:47.373Z,5.15
2022-11-12T10:23:19.782Z,6.35
2022-11-12T10:25:50.201Z,4.88
2022-11-12T10:28:32.079Z,5.13
2022-11-12T10:31:11.274Z,4.65
2022-11-12T10:33:39.294Z,5.40
2022-11-12T10:36:21.044Z,5.57
2022-11-12T10:38:53.173Z,6.10
2022-11-12T10:41:24.366Z,4.72
2022-11-12T10:43:58.841Z,5.50
2022-11-12T10:46:29.564Z,4.75
2022-11-12T10:49:01.498Z,5.80
2022-11-12T10:51:32.641Z,3.90
2022-11-12T10:54:00.942Z,4.05
2022-11-12T10:56:31.484Z,3.25
2022-11-12T10:59:16.480Z,3.72
2022-11-12T11:01:46.176Z,3.47
2022-11-12T11:04:25.108Z,5.20
2022-11-12T11:07:01.008Z,2.72
2022-11-12T11:09:29.269Z,3.30
2022-11-12T11:11:57.462Z,5.25
2022-11-12T11:14:29.868Z,3.72
2022-11-12T11:17:00.971Z,3.30
2022-11-12T11:19:35.111Z,4.38
2022-11-12T11:22:34.318Z,3.58
2022-11-12T11:27:42.799Z,4.05
2022-11-12T11:30:15.300Z,3.20
2022-11-12T11:32:54.811Z,2.92
2022-11-12T11:35:31.538Z,3.97
2022-11-12T11:38:17.302Z,4.80
2022-11-12T11:40:52.647Z,3.20
2022-11-12T11:43:37.397Z,3.63
2022-11-12T11:46:22.826Z,3.15
2022-11-12T11:49:07.847Z,4.75
2022-11-12T11:51:44.692Z,5.38
2022-11-12T11:54:34.971Z,5.10
2022-11-12T11:57:11.772Z,4.53
2022-11-12T11:59:54.015Z,4.68
2022-11-12T12:02:50.404Z,4.35
2022-11-12T12:05:34.715Z,5.38
2022-11-12T12:08:06.005Z,3.92
2022-11-12T12:11:07.019Z,4.70
2022-11-12T12:13:42.807Z,4.05
2022-11-12T12:16:30.019Z,4.27
2022-11-12T12:19:05.278Z,3.60
2022-11-12T12:21:38.875Z,4.35
2022-11-12T12:24:13.876Z,3.33
2022-11-12T12:26:46.306Z,4.90
2022-11-12T12:29:19.086Z,3.72
2022-11-12T12:31:52.331Z,2.65
2022-11-12T12:34:25.931Z,2.13
2022-11-12T12:37:00.807Z,2.17
2022-11-12T12:39:36.459Z,2.75
2022-11-12T12:42:10.736Z,2.55
2022-11-12T12:45:04.906Z,3.72
2022-11-12T12:47:39.359Z,3.20
2022-11-12T12:50:14.117Z,2.65
2022-11-12T12:53:02.205Z,2.72
2022-11-12T12:55:39.882Z,3.90
2022-11-12T12:58:18.428Z,3.78
2022-11-12T13:00:50.981Z,3.08
2022-11-12T13:03:54.118Z,2.50
2022-11-12T13:06:33.174Z,3.00
2022-11-12T13:09:04.846Z,2.58
2022-11-12T13:12:07.771Z,2.20
2022-11-12T13:15:11.008Z,2.50
2022-11-12T13:17:52.912Z,3.20
2022-11-12T13:20:39.304Z,2.33
2022-11-12T13:23:13.469Z,4.32
2022-11-12T13:25:41.542Z,2.83
2022-11-12T13:28:14.275Z,3.20
2022-11-12T13:31:02.612Z,4.22
2022-11-12T13:33:34.970Z,4.13
2022-11-12T13:36:33.350Z,3.10
2022-11-12T13:39:15.284Z,3.05
2022-11-12T13:42:01.246Z,4.85
2022-11-12T13:44:29.667Z,3.17
2022-11-12T13:46:57.809Z,3.53
2022-11-12T13:49:25.854Z,2.03
2022-11-12T13:51:56.604Z,2.57
2022-11-12T13:54:38.299Z,4.28
2022-11-12T13:57:31.660Z,3.92
2022-11-12T14:00:24.404Z,4.60
2022-11-12T14:02:56.355Z,6.53
2022-11-12T14:05:26.881Z,6.10
2022-11-12T14:08:25.653Z,3.50
2022-11-12T14:13:51.236Z,3.35
2022-11-12T14:16:35.362Z,4.80
2022-11-12T14:19:25.571Z,4.38
2022-11-12T14:22:02.058Z,3.08
2022-11-12T14:24:33.285Z,4.88
2022-11-12T14:27:02.933Z,3.67
2022-11-12T14:29:35.338Z,3.33
2022-11-12T14:32:05.318Z,2.63
2022-11-12T14:34:35.072Z,3.47
2022-11-12T14:37:03.295Z,3.35
2022-11-12T14:39:31.928Z,6.65
2022-11-12T14:42:02.078Z,2.60
2022-11-12T14:44:35.341Z,6.32
2022-11-12T14:47:04.054Z,6.25
2022-11-12T14:49:44.027Z,5.78
2022-11-12T14:52:17.774Z,4.47
2022-11-12T14:54:50.462Z,6.30
2022-11-12T14:57:24.928Z,4.85
2022-11-12T14:59:52.971Z,4.57
2022-11-12T15:02:37.319Z,6.20
2022-11-12T15:05:17.536Z,5.22
2022-11-12T15:07:57.025Z,4.68
2022-11-12T15:13:08.778Z,3.03
2022-11-12T15:15:39.304Z,4.60
2022-11-12T15:18:09.160Z,5.55
2022-11-12T15:20:37.159Z,5.40
2022-11-12T15:23:05.744Z,5.32
2022-11-12T15:25:33.840Z,8.07
2022-11-12T15:28:21.383Z,7.05
2022-11-12T15:31:01.819Z,11.10
2022-11-12T15:33:30.598Z,8.70
2022-11-12T15:35:59.717Z,7.55
2022-11-12T15:38:31.593Z,9.25
2022-11-12T15:41:00.199Z,8.15
2022-11-12T15:43:33.300Z,10.60
2022-11-12T15:46:01.492Z,9.60
2022-11-12T15:48:29.611Z,8.27
2022-11-12T15:50:57.587Z,7.70
2022-11-12T15:53:25.996Z,8.60
2022-11-12T15:55:54.330Z,13.10
2022-11-12T15:58:31.881Z,18.60
2022-11-12T16:01:00.278Z,18.00
2022-11-12T16:03:28.678Z,17.38
2022-11-12T16:05:56.951Z,21.00
2022-11-12T16:08:24.978Z,18.15
2022-11-12T16:10:53.042Z,15.65
2022-11-12T16:13:27.895Z,16.67
2022-11-12T16:15:57.587Z,11.68
2022-11-12T16:18:25.640Z,13.40
2022-11-12T16:20:53.690Z,10.35
2022-11-12T16:23:21.693Z,11.27
2022-11-12T16:25:50.047Z,6.85
2022-11-12T16:28:19.877Z,12.23
2022-11-12T16:30:50.626Z,8.57
2022-11-12T16:33:20.007Z,8.55
2022-11-12T16:35:48.024Z,10.25
2022-11-12T16:38:17.550Z,10.38
2022-11-12T16:43:14.240Z,10.65
2022-11-12T16:45:44.257Z,8.00
2022-11-12T16:48:16.766Z,7.72
2022-11-12T16:50:46.179Z,7.43
2022-11-12T16:53:14.474Z,11.20
2022-11-12T16:55:42.673Z,29.20
2022-11-12T16:58:14.328Z,37.47
2022-11-12T17:00:42.960Z,33.47
2022-11-12T17:03:13.705Z,32.00
2022-11-12T17:05:41.826Z,33.47
2022-11-12T17:08:11.621Z,35.60
2022-11-12T17:10:39.665Z,39.20
2022-11-12T17:13:07.962Z,30.92
2022-11-12T17:15:35.959Z,16.15
2022-11-12T17:18:04.296Z,18.10
2022-11-12T17:20:33.990Z,24.33
2022-11-12T17:23:02.008Z,18.85
2022-11-12T17:25:31.391Z,17.63
2022-11-12T17:27:59.400Z,22.70
2022-11-12T17:30:27.434Z,18.13
2022-11-12T17:32:55.464Z,22.00
2022-11-12T17:35:23.450Z,26.08
2022-11-12T17:37:51.639Z,12.32
2022-11-12T17:40:19.662Z,10.68
2022-11-12T17:42:49.091Z,9.10
2022-11-12T17:45:17.169Z,10.93
2022-11-12T17:47:45.198Z,9.88
2022-11-12T17:50:13.243Z,10.00
2022-11-12T17:52:41.232Z,12.38
2022-11-12T17:55:10.026Z,15.25
2022-11-12T17:57:38.164Z,12.32
2022-11-12T18:00:09.208Z,21.73
2022-11-12T18:02:37.187Z,44.33
2022-11-12T18:05:05.932Z,51.33
2022-11-12T18:07:34.051Z,31.15
2022-11-12T18:10:02.043Z,16.77
2022-11-12T18:12:30.054Z,20.02
2022-11-12T18:14:58.049Z,11.98
2022-11-12T18:17:27.464Z,10.10
2022-11-12T18:19:55.486Z,11.55
2022-11-12T18:22:23.496Z,8.90
2022-11-12T18:24:52.752Z,7.63
2022-11-12T18:27:20.769Z,11.13
2022-11-12T18:29:49.048Z,9.25
2022-11-12T18:32:17.012Z,12.57
2022-11-12T18:34:46.383Z,10.48
2022-11-12T18:37:14.890Z,13.27
2022-11-12T18:39:43.052Z,11.27
2022-11-12T18:42:11.023Z,17.00
2022-11-12T18:44:39.085Z,34.65
2022-11-12T18:47:07.123Z,46.70
2022-11-12T18:49:35.194Z,24.20
2022-11-12T18:52:04.640Z,58.13
2022-11-12T18:54:32.694Z,46.97
2022-11-12T18:57:00.770Z,17.63
2022-11-12T18:59:30.808Z,10.95
2022-11-12T19:01:59.584Z,9.07
2022-11-12T19:04:27.639Z,10.73
2022-11-12T19:06:55.894Z,39.40
2022-11-12T19:09:25.492Z,22.25
2022-11-12T19:11:53.487Z,17.40
2022-11-12T19:14:21.650Z,11.52
2022-11-12T19:16:49.623Z,11.10
2022-11-12T19:19:18.470Z,10.75
2022-11-12T19:21:46.602Z,9.55
2022-11-12T19:24:14.656Z,12.55
2022-11-12T19:26:44.070Z,11.27
2022-11-12T19:29:12.078Z,9.88
2022-11-12T19:31:40.856Z,11.77
2022-11-12T19:34:08.970Z,8.43
2022-11-12T19:36:36.993Z,16.02
2022-11-12T19:39:05.158Z,16.70
2022-11-12T19:41:33.159Z,25.20
2022-11-12T19:44:02.646Z,30.05
2022-11-12T19:46:31.731Z,25.13
2022-11-12T19:49:00.052Z,28.30
2022-11-12T19:51:28.421Z,25.38
2022-11-12T19:53:56.506Z,23.73
2022-11-12T19:56:27.599Z,19.90
2022-11-12T19:58:55.700Z,25.95
2022-11-12T20:01:25.322Z,20.10
2022-11-12T20:06:25.430Z,19.17
2022-11-12T20:08:53.727Z,16.45
2022-11-12T20:11:21.763Z,20.10
2022-11-12T20:13:52.834Z,19.98
2022-11-12T20:16:25.232Z,16.27
2022-11-12T20:18:56.236Z,14.27
2022-11-12T20:21:24.763Z,18.67
2022-11-12T20:23:52.823Z,13.77
2022-11-12T20:26:20.873Z,14.82
2022-11-12T20:28:48.908Z,16.38
2022-11-12T20:31:20.493Z,20.58
2022-11-12T20:33:50.567Z,17.55
2022-11-12T20:36:21.554Z,21.25
2022-11-12T20:38:50.459Z,19.50
2022-11-12T20:41:19.927Z,23.70
2022-11-12T20:43:48.348Z,19.30
2022-11-12T20:46:16.355Z,19.52
2022-11-12T20:48:44.359Z,21.15
2022-11-12T20:51:24.278Z,21.63
2022-11-12T20:53:59.256Z,19.73
2022-11-12T20:56:29.579Z,20.95
2022-11-12T20:58:58.007Z,19.38
2022-11-12T21:01:27.719Z,19.75
2022-11-12T21:03:56.003Z,38.70
2022-11-12T21:06:27.083Z,42.70
2022-11-12T21:08:59.534Z,61.88
2022-11-12T21:11:27.674Z,40.40
2022-11-12T21:13:55.835Z,30.25
2022-11-12T21:16:23.809Z,18.45
2022-11-12T21:18:51.816Z,12.68
2022-11-12T21:21:21.216Z,15.73
2022-11-12T21:26:20.950Z,12.95
2022-11-12T21:28:50.503Z,16.08
2022-11-12T21:33:50.350Z,42.53
2022-11-12T21:36:18.429Z,41.80
2022-11-12T21:38:46.540Z,45.35
2022-11-12T21:41:16.888Z,45.58
2022-11-12T21:43:46.822Z,50.65
2022-11-12T21:46:18.019Z,40.72
2022-11-12T21:48:49.926Z,28.75
2022-11-12T21:51:21.327Z,26.48
2022-11-12T21:53:53.575Z,25.83
2022-11-12T21:56:21.647Z,22.95
2022-11-12T21:58:51.311Z,20.38
2022-11-12T22:01:21.023Z,19.15
2022-11-12T22:03:50.530Z,21.23
2022-11-12T22:08:46.955Z,15.45
2022-11-12T22:11:17.577Z,23.63
2022-11-12T22:13:45.663Z,28.95
2022-11-12T22:16:17.709Z,29.33
2022-11-12T22:18:48.792Z,26.60
2022-11-12T22:21:18.571Z,34.80
2022-11-12T22:23:46.856Z,43.90
2022-11-12T22:26:16.701Z,46.58
2022-11-12T22:28:44.855Z,41.92
2022-11-12T22:31:16.285Z,39.13
2022-11-12T22:33:44.332Z,34.03
2022-11-12T22:36:14.383Z,35.10
2022-11-12T22:38:43.915Z,35.95
2022-11-12T22:43:41.037Z,38.17
2022-11-12T22:46:11.975Z,43.50
2022-11-12T22:48:41.927Z,33.03
2022-11-12T22:51:14.105Z,28.58
2022-11-12T22:53:42.280Z,26.70
2022-11-12T22:56:13.005Z,29.45
2022-11-12T22:58:42.764Z,24.98
2022-11-12T23:01:18.098Z,22.85
2022-11-12T23:03:47.581Z,24.95
2022-11-12T23:06:15.646Z,25.30
2022-11-12T23:08:44.098Z,23.80
2022-11-12T23:11:14.160Z,21.35
2022-11-12T23:13:42.860Z,23.58
2022-11-12T23:16:13.148Z,19.58
2022-11-12T23:18:41.203Z,22.23
2022-11-12T23:21:12.579Z,22.30
2022-11-12T23:23:40.620Z,21.33
2022-11-12T23:26:12.610Z,23.95
2022-11-12T23:28:40.662Z,24.42
2022-11-12T23:31:12.293Z,29.95
2022-11-12T23:33:40.531Z,25.10
2022-11-12T23:36:11.472Z,22.90
2022-11-12T23:38:39.542Z,25.15
2022-11-12T23:41:08.541Z,19.77
2022-11-12T23:43:36.514Z,14.05
2022-11-12T23:46:04.871Z,19.75
2022-11-12T23:48:33.726Z,17.73
2022-11-12T23:51:04.401Z,21.17
2022-11-12T23:53:34.786Z,24.83
2022-11-12T23:56:03.167Z,26.85
2022-11-12T23:58:32.081Z,22.15
